Terminal Aerodrome Forecast
Issued by NWS

Current Version | Previous Version | Text Only | Print | Product List | Glossary Off
Versions: 1 2 3 4 5 6 7 8 9 10 11 12 13 14 15 16 17

615
FTUS42 KILM 221721
TAFCRE
TAF
KCRE 221721Z 2218/2318 23012G22KT P6SM FEW250
     FM230200 21011KT P6SM SCT100 BKN250
     FM231200 23012KT P6SM FEW250=

USA.gov is the U.S. government's official web portal to all federal, state and local government web resources and services.